首页
METAR-TAF:

METAR-TAF

机场 :

Dare County Regional Airport

Manteo, 北卡罗来纳州, 美国

纬度: 35-55N, 经度: 075-42W, 海拔: 4米

当前天气观测

该预报发布于10分钟前的07:20 UTC
风速11节,风向南转西南,有时为19节阵风
温度 10°C
湿度 100%
气压 1014 hPa
能見度: 16.1公里
散云层高于6000英尺
多云层高于7000英尺

METAR: KMQI 240720Z AUTO 20011G19KT 10SM SCT060 BKN070 10/10 A2994 RMK AO2 T01030096

时间: 02:30 (07:30 UTC)


TAF: 丢失

超过4000个机场的气象观测和天气预报(METAR&TAF报告)。

可查询的气象台以黄色和红色小点在地图上表示。

将鼠标移到小点上方,可查看气象台名称。

然后点击查看天气观测和预报。

如需切换地图:点击带黑十字的绿色按钮放大地图;点击带横线的绿色按钮缩小地图;或者点击绿色箭头查看邻近地区的地图。


METAR-TAF: